Time;durP1;ratioP1;P1;durP2;ratioP2;P2;SDS_P1;SDS_P2;PMS_P1;PMS_P2;Temp;Humidity;BMP_temperature;BMP_pressure;BME280_temperature;BME280_humidity;BME280_pressure;Samples;Min_cycle;Max_cycle;Signal;HPM_P1;HPM_P2
2021/08/18 00:00:14;;;;;;;;;4.50;4.00;;;;;24.27;44.14;101528.38;5056949;28;45247;-47
2021/08/18 00:02:40;;;;;;;;;4.00;4.00;;;;;24.26;44.36;101524.03;5038768;28;47251;-47
2021/08/18 00:05:09;;;;;;;;;4.75;4.00;;;;;24.27;44.51;101525.72;5056880;28;45179;-48
2021/08/18 00:07:34;;;;;;;;;5.50;4.25;;;;;24.27;44.04;101525.72;5056703;28;45305;-49
2021/08/18 00:09:59;;;;;;;;;4.00;4.00;;;;;24.26;44.19;101521.38;5057102;28;45602;-49
2021/08/18 00:12:25;;;;;;;;;6.25;5.00;;;;;24.27;44.18;101520.44;5056552;28;45442;-47
2021/08/18 00:14:51;;;;;;;;;4.00;4.00;;;;;24.27;43.98;101517.78;5057046;28;45329;-49
2021/08/18 00:17:17;;;;;;;;;3.75;3.75;;;;;24.27;44.58;101514.25;5057303;28;45340;-48
2021/08/18 00:19:42;;;;;;;;;5.00;4.75;;;;;24.26;44.62;101513.41;5057038;28;45335;-50
2021/08/18 00:22:08;;;;;;;;;5.25;4.00;;;;;24.27;44.43;101515.13;5056531;28;45460;-50
2021/08/18 00:24:33;;;;;;;;;2.00;2.00;;;;;24.28;44.30;101508.03;5056487;28;45463;-50
2021/08/18 00:26:59;;;;;;;;;5.75;3.00;;;;;24.26;44.06;101502.81;5056521;28;45305;-48
2021/08/18 00:29:24;;;;;;;;;5.25;4.75;;;;;24.26;44.19;101504.59;5056871;28;45609;-48
2021/08/18 00:31:49;;;;;;;;;9.00;5.50;;;;;24.23;44.50;101500.34;5056673;28;46456;-49
2021/08/18 00:34:15;;;;;;;;;8.00;5.75;;;;;24.24;44.17;101508.22;5056512;28;45249;-51
2021/08/18 00:36:40;;;;;;;;;6.75;5.50;;;;;24.25;44.07;101503.78;5056558;28;45422;-48
2021/08/18 00:39:05;;;;;;;;;6.00;4.00;;;;;24.25;44.38;101501.13;5056677;28;45567;-47
2021/08/18 00:41:31;;;;;;;;;5.75;4.00;;;;;24.25;44.37;101501.13;5056252;28;45355;-47
2021/08/18 00:43:56;;;;;;;;;4.50;4.50;;;;;24.25;44.54;101498.47;5056269;28;45388;-51
2021/08/18 00:46:21;;;;;;;;;4.00;4.00;;;;;24.24;44.38;101508.22;5056649;28;45364;-48
2021/08/18 00:48:47;;;;;;;;;4.75;4.75;;;;;24.25;44.22;101501.13;5056501;28;45586;-47
2021/08/18 00:51:13;;;;;;;;;4.50;4.00;;;;;24.25;44.31;101506.41;5056249;28;46093;-48
2021/08/18 00:53:39;;;;;;;;;6.25;3.25;;;;;24.25;43.99;101506.41;5056152;28;45335;-47
2021/08/18 00:56:05;;;;;;;;;7.00;4.75;;;;;24.25;43.98;101498.47;5056375;28;45288;-48
2021/08/18 00:58:30;;;;;;;;;4.50;4.50;;;;;24.23;43.94;101490.63;5055065;28;45624;-49
2021/08/18 01:00:57;;;;;;;;;3.50;2.75;;;;;24.25;44.05;101495.81;5055772;28;45397;-51
2021/08/18 01:03:23;;;;;;;;;7.00;4.00;;;;;24.24;44.17;101495.00;5056461;28;45446;-48
2021/08/18 01:05:48;;;;;;;;;3.25;3.25;;;;;24.25;44.71;101495.81;5056354;28;45340;-52
2021/08/18 01:08:13;;;;;;;;;5.00;3.00;;;;;24.23;44.50;101492.41;5056423;28;45687;-48
2021/08/18 01:10:39;;;;;;;;;4.25;4.25;;;;;24.24;44.11;101499.41;5056055;28;45454;-48
2021/08/18 01:13:05;;;;;;;;;2.50;2.50;;;;;24.24;44.11;101499.41;5056089;28;45671;-48
2021/08/18 01:15:32;;;;;;;;;5.00;3.00;;;;;24.26;44.74;101504.59;5056043;28;45419;-49
2021/08/18 01:17:59;;;;;;;;;3.00;2.00;;;;;24.24;44.43;101496.75;5056164;28;45319;-49
2021/08/18 01:20:32;;;;;;;;;4.00;4.00;;;;;24.24;44.12;101494.13;5057795;28;46427;-49
2021/08/18 01:23:03;;;;;;;;;3.50;3.00;;;;;24.23;44.75;101492.41;5059418;28;45335;-48
2021/08/18 01:25:28;;;;;;;;;3.00;3.00;;;;;24.22;44.25;101490.72;5059379;28;45402;-50
2021/08/18 01:27:57;;;;;;;;;3.25;3.25;;;;;24.22;44.50;101493.34;5059932;28;45320;-49
2021/08/18 01:30:24;;;;;;;;;6.50;5.50;;;;;24.22;44.04;101485.41;5059360;28;46648;-48
2021/08/18 01:32:59;;;;;;;;;8.00;4.00;;;;;24.22;44.53;101490.72;5057901;28;45387;-48
2021/08/18 01:35:37;;;;;;;;;6.50;6.00;;;;;24.22;44.09;101488.06;5059750;28;45288;-48
2021/08/18 01:38:05;;;;;;;;;5.00;4.50;;;;;24.22;44.72;101480.97;5059491;28;45545;-48
2021/08/18 01:40:30;;;;;;;;;4.50;3.25;;;;;24.21;44.72;101486.34;5058956;28;46223;-50
2021/08/18 01:42:56;;;;;;;;;5.50;2.25;;;;;24.20;44.75;101477.56;5059236;28;45297;-48
2021/08/18 01:45:27;;;;;;;;;5.00;3.75;;;;;24.23;44.42;101481.81;5059478;28;45256;-48
2021/08/18 01:47:54;;;;;;;;;3.00;3.00;;;;;24.21;44.59;101481.91;5059753;28;45306;-49
2021/08/18 01:50:22;;;;;;;;;6.00;5.00;;;;;24.21;44.06;101484.56;5058846;28;46495;-49
2021/08/18 01:52:49;;;;;;;;;3.00;3.00;;;;;24.20;44.46;101476.69;5059110;28;45705;-48
2021/08/18 01:55:15;;;;;;;;;3.25;3.25;;;;;24.22;44.45;101485.41;5059014;28;45724;-50
2021/08/18 01:57:42;;;;;;;;;2.75;2.75;;;;;24.21;44.33;101473.97;5059059;28;45448;-51
2021/08/18 02:00:10;;;;;;;;;3.25;3.25;;;;;24.22;44.81;101472.16;5058617;28;45446;-47
2021/08/18 02:02:35;;;;;;;;;4.00;3.00;;;;;24.20;44.08;101472.28;5040984;28;45609;-49
2021/08/18 02:05:01;;;;;;;;;4.00;3.00;;;;;24.21;44.46;101473.09;5058823;28;45260;-48
2021/08/18 02:07:26;;;;;;;;;6.25;3.75;;;;;24.20;44.67;101474.03;5059267;28;45254;-48
2021/08/18 02:09:51;;;;;;;;;4.50;3.50;;;;;24.21;44.78;101470.47;5058720;28;45570;-50
2021/08/18 02:12:17;;;;;;;;;4.00;4.00;;;;;24.21;44.18;101476.63;5058734;28;45426;-48
2021/08/18 02:14:42;;;;;;;;;2.00;2.00;;;;;24.21;44.01;101478.41;5058817;28;45259;-52
2021/08/18 02:17:08;;;;;;;;;4.50;3.50;;;;;24.20;44.58;101460.81;5058796;28;45488;-47
2021/08/18 02:19:34;;;;;;;;;4.50;4.00;;;;;24.20;44.61;101471.41;5058362;28;46399;-51
2021/08/18 02:21:59;;;;;;;;;4.50;4.00;;;;;24.18;44.36;101478.63;5058111;28;45446;-51
2021/08/18 02:24:25;;;;;;;;;3.25;3.25;;;;;24.20;44.55;101471.41;5058978;28;45863;-48
2021/08/18 02:26:50;;;;;;;;;2.25;2.25;;;;;24.21;44.34;101467.81;5058626;28;45605;-48
2021/08/18 02:29:15;;;;;;;;;5.00;5.00;;;;;24.18;44.55;101463.56;5058266;28;45379;-50
2021/08/18 02:31:41;;;;;;;;;3.50;3.50;;;;;24.19;44.61;101464.44;5058270;28;45366;-48
2021/08/18 02:34:09;;;;;;;;;5.00;4.25;;;;;24.19;44.13;101465.25;5058442;28;45396;-49
2021/08/18 02:36:35;;;;;;;;;2.25;2.25;;;;;24.18;44.13;101458.25;5058616;28;45586;-48
2021/08/18 02:39:01;;;;;;;;;4.00;2.25;;;;;24.20;44.09;101463.44;5058118;28;45304;-49
2021/08/18 02:41:27;;;;;;;;;3.50;3.50;;;;;24.18;44.21;101463.56;5058627;28;45348;-51
2021/08/18 02:43:52;;;;;;;;;4.75;3.00;;;;;24.18;44.15;101458.25;5058237;28;45340;-51
2021/08/18 02:46:18;;;;;;;;;2.00;2.00;;;;;24.19;44.67;101457.31;5058336;28;45629;-52
2021/08/18 02:48:43;;;;;;;;;3.00;2.00;;;;;24.18;44.79;101455.63;5057862;28;46591;-50
2021/08/18 02:51:09;;;;;;;;;6.25;2.75;;;;;24.18;44.14;101466.22;5057879;28;52402;-51
2021/08/18 02:53:34;;;;;;;;;3.50;3.00;;;;;24.18;44.09;101454.78;5058162;28;45340;-52
2021/08/18 02:55:59;;;;;;;;;4.00;3.00;;;;;24.17;44.54;101451.25;5058168;28;45497;-50
2021/08/18 02:58:25;;;;;;;;;4.50;2.50;;;;;24.17;44.19;101453.06;5058058;28;46341;-52
2021/08/18 03:00:50;;;;;;;;;4.50;4.50;;;;;24.18;44.34;101454.78;5057907;28;45377;-49
2021/08/18 03:03:15;;;;;;;;;4.50;3.75;;;;;24.16;43.83;101448.72;5057841;28;45372;-49
2021/08/18 03:05:41;;;;;;;;;3.00;2.25;;;;;24.17;44.21;101458.38;5057996;28;45525;-50
2021/08/18 03:08:06;;;;;;;;;3.75;2.50;;;;;24.16;44.40;101456.66;5057623;28;46080;-49
2021/08/18 03:10:31;;;;;;;;;4.00;3.25;;;;;24.17;44.40;101450.41;5039630;28;45507;-49
2021/08/18 03:12:57;;;;;;;;;4.50;3.25;;;;;24.17;44.38;101459.19;5058119;28;45560;-49
2021/08/18 03:15:22;;;;;;;;;3.00;3.00;;;;;24.16;44.81;101454.00;5057894;28;45517;-50
2021/08/18 03:17:48;;;;;;;;;3.25;3.25;;;;;24.16;44.36;101454.00;5039072;28;45553;-49
2021/08/18 03:20:14;;;;;;;;;3.75;3.00;;;;;24.17;44.22;101453.06;5057673;28;45330;-50
2021/08/18 03:22:39;;;;;;;;;4.25;2.75;;;;;24.15;44.80;101454.94;5057671;28;45301;-50
2021/08/18 03:25:06;;;;;;;;;2.25;2.25;;;;;24.16;44.20;101454.84;5057703;28;45368;-48
2021/08/18 03:27:32;;;;;;;;;3.25;3.25;;;;;24.17;44.75;101450.41;5057284;28;47376;-49
2021/08/18 03:29:57;;;;;;;;;3.00;3.00;;;;;24.16;44.10;101448.72;5057722;28;45179;-49
2021/08/18 03:32:22;;;;;;;;;2.50;2.50;;;;;24.15;44.60;101452.31;5057585;28;45380;-52
2021/08/18 03:34:48;;;;;;;;;3.00;3.00;;;;;24.15;44.82;101449.66;5057653;28;45229;-49
2021/08/18 03:37:13;;;;;;;;;4.25;3.00;;;;;24.14;44.53;101446.16;5057258;28;45410;-49
2021/08/18 03:39:39;;;;;;;;;3.00;3.00;;;;;24.15;44.48;101452.31;5057333;28;45217;-49
2021/08/18 03:42:04;;;;;;;;;3.75;3.75;;;;;24.15;44.59;101453.16;5055957;28;45348;-49
2021/08/18 03:44:29;;;;;;;;;3.00;3.00;;;;;24.15;44.53;101452.31;5057828;28;45534;-49
2021/08/18 03:46:55;;;;;;;;;3.50;2.50;;;;;24.16;44.66;101451.38;5056964;28;46424;-50
2021/08/18 03:49:20;;;;;;;;;1.50;1.50;;;;;24.15;44.74;101452.31;5056594;28;45349;-49
2021/08/18 03:51:46;;;;;;;;;2.25;1.75;;;;;24.14;44.39;101450.59;5057354;28;45331;-52
2021/08/18 03:54:11;;;;;;;;;3.00;3.00;;;;;24.15;44.59;101441.72;5056794;28;45323;-49
2021/08/18 03:56:37;;;;;;;;;3.50;3.00;;;;;24.14;44.42;101440.88;5057047;28;46578;-49
2021/08/18 03:59:02;;;;;;;;;2.50;2.50;;;;;24.15;44.65;101444.38;5057267;28;45785;-48
2021/08/18 04:01:27;;;;;;;;;4.00;3.00;;;;;24.14;44.92;101450.59;5057475;28;45386;-52
2021/08/18 04:03:53;;;;;;;;;3.00;3.00;;;;;24.14;44.76;101446.16;5057264;28;45520;-50
2021/08/18 04:06:18;;;;;;;;;3.00;3.00;;;;;24.13;44.09;101440.94;5056749;28;45323;-50
2021/08/18 04:08:43;;;;;;;;;3.75;3.75;;;;;24.13;44.54;101444.47;5056827;28;45412;-49
2021/08/18 04:11:11;;;;;;;;;2.50;2.50;;;;;24.13;44.88;101446.25;5056427;28;45264;-51
2021/08/18 04:13:37;;;;;;;;;3.25;3.25;;;;;24.13;44.97;101447.13;5057013;28;45258;-49
2021/08/18 04:16:02;;;;;;;;;3.75;3.25;;;;;24.12;44.61;101448.06;5056449;28;46228;-48
2021/08/18 04:18:27;;;;;;;;;3.00;3.00;;;;;24.12;44.62;101448.06;5056688;28;45348;-49
2021/08/18 04:20:53;;;;;;;;;5.25;4.00;;;;;24.12;44.46;101450.72;5056841;28;45355;-51
2021/08/18 04:23:18;;;;;;;;;2.50;2.50;;;;;24.12;44.51;101436.59;5056954;28;45434;-49
2021/08/18 04:25:43;;;;;;;;;3.00;3.00;;;;;24.09;44.42;101438.47;5056527;28;48126;-50
2021/08/18 04:28:09;;;;;;;;;2.00;2.00;;;;;24.12;44.41;101442.75;5038362;28;49024;-49
2021/08/18 04:30:34;;;;;;;;;3.50;3.50;;;;;24.12;44.49;101441.88;5056653;28;45784;-49
2021/08/18 04:33:00;;;;;;;;;3.75;3.50;;;;;24.12;44.82;101456.00;5057034;28;45767;-49
2021/08/18 04:35:26;;;;;;;;;4.75;4.00;;;;;24.11;44.92;101454.28;5056473;28;46607;-50
2021/08/18 04:37:51;;;;;;;;;3.50;3.50;;;;;24.11;44.20;101448.13;5056506;28;45273;-51
2021/08/18 04:40:17;;;;;;;;;3.50;3.00;;;;;24.09;44.73;101454.38;5055253;28;45378;-53
2021/08/18 04:42:45;;;;;;;;;2.50;2.50;;;;;24.12;44.54;101455.13;5056637;28;45565;-49
2021/08/18 04:45:12;;;;;;;;;4.75;3.00;;;;;24.10;44.36;101449.94;5056262;28;46672;-53
2021/08/18 04:47:38;;;;;;;;;4.00;3.00;;;;;24.10;44.91;101444.66;5056277;28;45331;-49
2021/08/18 04:50:05;;;;;;;;;5.00;4.00;;;;;24.11;45.00;101456.94;5056915;28;45312;-50
2021/08/18 04:52:31;;;;;;;;;4.75;4.00;;;;;24.09;44.97;101446.44;5056861;28;45395;-54
2021/08/18 04:54:56;;;;;;;;;4.75;4.00;;;;;24.09;44.93;101458.81;5057460;28;46086;-50
2021/08/18 04:57:21;;;;;;;;;3.00;3.00;;;;;24.08;44.89;101451.81;5059842;28;45519;-51
2021/08/18 04:59:47;;;;;;;;;4.50;3.00;;;;;24.08;44.78;101452.69;5059697;28;45319;-48
2021/08/18 05:02:12;;;;;;;;;5.00;5.00;;;;;24.08;44.73;101449.19;5060108;28;45592;-50
2021/08/18 05:04:37;;;;;;;;;6.75;5.00;;;;;24.08;44.71;101447.41;5059650;28;45450;-52
2021/08/18 05:07:03;;;;;;;;;4.00;4.00;;;;;24.10;44.90;101447.28;5059907;28;45260;-49
2021/08/18 05:09:29;;;;;;;;;4.00;3.50;;;;;24.09;45.04;101443.78;5059887;28;45265;-50
2021/08/18 05:11:54;;;;;;;;;5.00;4.25;;;;;24.09;45.12;101445.59;5059955;28;45546;-48
2021/08/18 05:14:21;;;;;;;;;3.50;3.50;;;;;24.11;44.85;101448.13;5059327;28;46115;-48
2021/08/18 05:16:47;;;;;;;;;3.75;3.75;;;;;24.09;45.02;101454.38;5041805;28;45351;-48
2021/08/18 05:19:12;;;;;;;;;4.50;4.50;;;;;24.09;44.95;101448.25;5059693;28;45407;-49
2021/08/18 05:21:37;;;;;;;;;7.75;3.00;;;;;24.12;45.51;101449.84;5059918;28;45427;-52
2021/08/18 05:24:03;;;;;;;;;6.50;4.00;;;;;24.12;45.45;101449.84;5059671;28;46721;-51
2021/08/18 05:26:28;;;;;;;;;7.50;4.25;;;;;24.12;45.08;101452.50;5059409;28;45408;-49
2021/08/18 05:28:54;;;;;;;;;4.50;3.50;;;;;24.13;45.23;101454.19;5059509;28;45336;-51
2021/08/18 05:31:19;;;;;;;;;6.00;3.75;;;;;24.12;45.08;101455.13;5059400;28;45508;-50
2021/08/18 05:33:44;;;;;;;;;3.75;3.00;;;;;24.12;45.38;101447.19;5059185;28;46123;-47
2021/08/18 05:36:09;;;;;;;;;5.00;4.00;;;;;24.12;45.41;101449.84;5059298;28;45387;-50
2021/08/18 05:38:35;;;;;;;;;3.75;3.50;;;;;24.12;45.13;101453.34;5059396;28;45434;-49
2021/08/18 05:41:00;;;;;;;;;4.50;4.50;;;;;24.12;45.39;101457.78;5059511;28;45406;-51
2021/08/18 05:43:26;;;;;;;;;5.25;4.75;;;;;24.12;45.42;101466.59;5059045;28;45657;-50
2021/08/18 05:45:51;;;;;;;;;3.50;3.50;;;;;24.11;45.54;101461.38;5058926;28;45413;-50
2021/08/18 05:48:16;;;;;;;;;4.50;3.00;;;;;24.10;45.34;101457.88;5059306;28;45449;-53
2021/08/18 05:50:42;;;;;;;;;5.75;4.00;;;;;24.11;45.76;101464.03;5041284;28;45640;-52
2021/08/18 05:53:15;;;;;;;;;4.00;3.50;;;;;24.07;45.25;101461.59;5059230;28;45543;-52
2021/08/18 05:55:58;;;;;;;;;6.00;4.00;;;;;24.09;45.23;101459.66;5058964;28;45430;-52
2021/08/18 05:58:24;;;;;;;;;4.25;4.25;;;;;24.08;45.16;101465.06;5058880;28;45307;-51
2021/08/18 06:00:49;;;;;;;;;4.75;4.75;;;;;24.09;45.28;101464.97;5059244;28;45290;-51
2021/08/18 06:03:14;;;;;;;;;4.00;4.00;;;;;24.08;45.63;101457.13;5058718;28;46596;-51
2021/08/18 06:05:40;;;;;;;;;5.50;5.50;;;;;24.08;45.33;101465.94;5058334;28;45427;-52
2021/08/18 06:08:06;;;;;;;;;5.00;4.00;;;;;24.09;45.24;101467.59;5059173;28;45340;-51
2021/08/18 06:10:32;;;;;;;;;4.00;4.00;;;;;24.07;46.06;101460.72;5059053;28;45495;-51
2021/08/18 06:13:01;;;;;;;;;5.00;4.00;;;;;24.10;45.93;101471.13;5058688;28;45356;-51
2021/08/18 06:15:26;;;;;;;;;4.00;4.00;;;;;24.10;45.45;101465.84;5058535;28;45723;-53
2021/08/18 06:17:51;;;;;;;;;4.75;4.00;;;;;24.08;45.58;101468.59;5058645;28;45272;-49
2021/08/18 06:20:17;;;;;;;;;5.25;5.25;;;;;24.09;45.23;101472.91;5058890;28;45220;-52
2021/08/18 06:22:44;;;;;;;;;4.75;4.75;;;;;24.10;45.61;101471.13;5058463;28;46495;-53
2021/08/18 06:25:10;;;;;;;;;3.75;3.50;;;;;24.09;45.63;101474.72;5058530;28;45386;-51
2021/08/18 06:27:35;;;;;;;;;4.50;4.50;;;;;24.09;45.30;101464.13;5058424;28;45411;-52
2021/08/18 06:30:01;;;;;;;;;8.25;7.50;;;;;24.08;46.00;101473.88;5058676;28;45457;-53
2021/08/18 06:32:26;;;;;;;;;7.25;6.00;;;;;24.07;45.68;101466.88;5058289;28;46415;-52
2021/08/18 06:34:53;;;;;;;;;10.75;5.75;;;;;24.08;45.69;101478.31;5040109;28;45454;-51
2021/08/18 06:37:19;;;;;;;;;12.25;6.00;;;;;24.08;45.60;101473.88;5058612;28;45459;-54
2021/08/18 06:39:45;;;;;;;;;7.75;5.25;;;;;24.09;45.93;101475.56;5058839;28;45394;-54
2021/08/18 06:42:11;;;;;;;;;6.75;6.25;;;;;24.12;46.01;101484.25;5058059;28;46401;-52
2021/08/18 06:44:36;;;;;;;;;10.75;7.00;;;;;24.11;46.37;101483.44;5058534;28;45247;-50
2021/08/18 06:47:02;;;;;;;;;7.25;6.50;;;;;24.13;46.17;101478.03;5058105;28;45315;-49
2021/08/18 06:49:27;;;;;;;;;10.00;6.00;;;;;24.14;46.29;101483.25;5058413;28;45579;-51
2021/08/18 06:51:53;;;;;;;;;13.50;5.50;;;;;24.16;46.60;101486.63;5057987;28;46331;-47
2021/08/18 06:54:18;;;;;;;;;13.00;6.75;;;;;24.18;46.46;101484.75;5058005;28;45323;-50
2021/08/18 06:56:43;;;;;;;;;10.00;7.00;;;;;24.21;46.25;101487.22;5057084;28;45355;-50
2021/08/18 06:59:09;;;;;;;;;13.75;7.25;;;;;24.23;46.64;101487.13;5040304;28;45657;-50
2021/08/18 07:01:34;;;;;;;;;9.00;7.50;;;;;24.24;46.62;101483.53;5056481;28;47601;-50
2021/08/18 07:04:01;;;;;;;;;6.00;5.75;;;;;24.25;46.25;101487.88;5057832;28;45316;-52
2021/08/18 07:06:27;;;;;;;;;8.25;4.50;;;;;24.24;46.86;101480.88;5057707;28;45338;-52
2021/08/18 07:08:52;;;;;;;;;9.00;6.00;;;;;24.25;46.51;101493.19;5058034;28;45459;-50
2021/08/18 07:11:17;;;;;;;;;9.50;5.25;;;;;24.24;46.52;101484.38;5057521;28;45573;-49
2021/08/18 07:13:43;;;;;;;;;10.00;7.00;;;;;24.25;46.86;101482.56;5057871;28;45395;-51
2021/08/18 07:16:08;;;;;;;;;12.75;8.00;;;;;24.24;46.22;101478.22;5057971;28;45371;-50
2021/08/18 07:18:34;;;;;;;;;11.00;8.25;;;;;24.26;46.23;101486.94;5057024;28;45325;-51
2021/08/18 07:20:59;;;;;;;;;7.00;5.00;;;;;24.26;46.64;101475.47;5057475;28;46370;-50
2021/08/18 07:23:25;;;;;;;;;10.75;5.75;;;;;24.24;46.16;101483.53;5057566;28;45316;-49
2021/08/18 07:25:50;;;;;;;;;6.50;6.00;;;;;24.23;46.10;101473.88;5057558;28;45313;-48
2021/08/18 07:28:15;;;;;;;;;5.50;5.25;;;;;24.22;46.37;101475.69;5057774;28;45387;-49
2021/08/18 07:30:41;;;;;;;;;8.00;5.00;;;;;24.23;46.13;101471.22;5057833;28;45500;-47
2021/08/18 07:33:07;;;;;;;;;7.00;2.75;;;;;24.22;46.30;101474.81;5057241;28;45485;-50
2021/08/18 07:35:32;;;;;;;;;7.00;5.50;;;;;24.23;46.17;101471.22;5057447;28;45237;-50
2021/08/18 07:37:57;;;;;;;;;8.50;6.00;;;;;24.24;46.05;101472.94;5057781;28;45568;-50
2021/08/18 07:40:24;;;;;;;;;4.00;4.00;;;;;24.25;46.50;101474.63;5039043;28;47109;-48
2021/08/18 07:42:49;;;;;;;;;6.00;3.50;;;;;24.24;46.23;101470.28;5057174;28;45387;-53
2021/08/18 07:45:15;;;;;;;;;7.50;6.00;;;;;24.23;46.44;101471.22;5057369;28;45905;-52
2021/08/18 07:47:40;;;;;;;;;8.00;5.00;;;;;24.19;46.47;101465.25;5038587;28;45419;-51
2021/08/18 07:50:06;;;;;;;;;3.50;3.50;;;;;24.12;46.10;101471.88;5056579;28;46183;-51
2021/08/18 07:52:32;;;;;;;;;5.00;5.00;;;;;24.09;46.54;101472.06;5057017;28;45546;-52
2021/08/18 07:54:57;;;;;;;;;3.00;3.00;;;;;24.05;46.68;101474.06;5057222;28;45355;-49
2021/08/18 07:57:22;;;;;;;;;4.00;4.00;;;;;24.00;46.32;101473.47;5056472;28;45654;-54
2021/08/18 07:59:51;;;;;;;;;5.00;3.25;;;;;23.97;46.96;101475.44;5056369;28;45494;-51
2021/08/18 08:02:20;;;;;;;;;5.00;5.00;;;;;23.94;46.23;101476.47;5057108;28;45727;-53
2021/08/18 08:04:47;;;;;;;;;4.25;4.00;;;;;23.86;46.46;101474.28;5057118;28;45354;-49
2021/08/18 08:07:15;;;;;;;;;6.00;3.75;;;;;23.87;46.76;101469.81;5057472;28;45442;-51
2021/08/18 08:09:40;;;;;;;;;3.75;3.75;;;;;23.85;47.03;101472.56;5057146;28;45526;-51
2021/08/18 08:12:06;;;;;;;;;3.75;3.75;;;;;23.84;46.80;101481.44;5056704;28;45456;-51
2021/08/18 08:14:31;;;;;;;;;5.00;4.00;;;;;23.84;47.31;101470.84;5056802;28;45345;-49
2021/08/18 08:16:56;;;;;;;;;9.00;7.25;;;;;23.86;46.82;101476.06;5056683;28;45281;-52
2021/08/18 08:19:22;;;;;;;;;5.50;5.25;;;;;23.89;47.46;101478.53;5056491;28;45985;-47
2021/08/18 08:21:47;;;;;;;;;10.00;5.25;;;;;23.93;47.72;101474.75;5056645;28;45355;-53
2021/08/18 08:24:13;;;;;;;;;7.00;6.00;;;;;23.95;47.25;101478.19;5056890;28;45388;-51
2021/08/18 08:26:38;;;;;;;;;3.75;3.75;;;;;23.95;46.96;101475.56;5056800;28;45314;-53
2021/08/18 08:29:04;;;;;;;;;6.25;5.00;;;;;23.95;47.07;101478.19;5056317;28;45464;-53
2021/08/18 08:31:29;;;;;;;;;6.25;5.25;;;;;23.94;47.12;101479.13;5056667;28;45418;-51
2021/08/18 08:33:54;;;;;;;;;5.25;5.00;;;;;23.96;46.96;101479.03;5056801;28;45367;-51
2021/08/18 08:36:20;;;;;;;;;6.00;5.25;;;;;23.94;47.23;101482.59;5056919;28;45449;-52
2021/08/18 08:38:45;;;;;;;;;7.00;6.00;;;;;23.96;46.92;101479.03;5056229;28;46072;-49
2021/08/18 08:41:11;;;;;;;;;6.25;5.00;;;;;23.97;47.15;101483.41;5056673;28;45327;-48
2021/08/18 08:43:38;;;;;;;;;4.50;4.00;;;;;23.95;47.22;101486.16;5056637;28;45352;-50
2021/08/18 08:46:05;;;;;;;;;5.25;5.25;;;;;23.97;46.90;101481.63;5056608;28;45532;-46
2021/08/18 08:48:32;;;;;;;;;6.50;6.25;;;;;23.96;46.97;101484.34;5056331;28;45636;-49
2021/08/18 08:50:58;;;;;;;;;4.75;4.75;;;;;23.97;47.23;101486.03;5056297;28;45707;-52
2021/08/18 08:53:24;;;;;;;;;3.25;3.25;;;;;23.96;47.31;101485.22;5056325;28;45321;-48
2021/08/18 08:55:49;;;;;;;;;4.00;4.00;;;;;23.97;47.24;101486.91;5056636;28;45426;-51
2021/08/18 08:58:15;;;;;;;;;6.25;4.00;;;;;23.98;47.12;101487.75;5056312;28;47181;-52
2021/08/18 09:00:40;;;;;;;;;5.50;4.25;;;;;23.99;47.10;101490.28;5056164;28;45376;-52
2021/08/18 09:03:05;;;;;;;;;6.50;5.25;;;;;24.01;47.02;101498.16;5056278;28;45364;-52
2021/08/18 09:05:31;;;;;;;;;8.25;5.00;;;;;24.00;47.16;101486.72;5056385;28;45406;-56
2021/08/18 09:07:58;;;;;;;;;6.50;4.75;;;;;23.98;46.95;101488.59;5037626;28;46930;-55
2021/08/18 09:10:23;;;;;;;;;7.00;7.00;;;;;23.92;46.83;101488.94;5056227;28;45813;-53
2021/08/18 09:12:49;;;;;;;;;4.75;4.75;;;;;23.85;46.73;101487.59;5056225;28;45349;-54
2021/08/18 09:15:25;;;;;;;;;3.25;3.25;;;;;23.77;46.78;101486.25;5056742;28;45311;-51
2021/08/18 09:17:53;;;;;;;;;4.00;4.00;;;;;23.73;46.98;101484.75;5055899;28;46605;-51
2021/08/18 09:20:19;;;;;;;;;3.75;3.75;;;;;23.69;46.70;101482.38;5055900;28;45366;-51
2021/08/18 09:22:49;;;;;;;;;5.00;5.00;;;;;23.65;47.00;101488.78;5056491;28;45343;-51
2021/08/18 09:25:29;;;;;;;;;4.00;4.00;;;;;23.59;47.10;101479.41;5056447;28;45257;-51
2021/08/18 09:28:00;;;;;;;;;6.50;6.00;;;;;23.55;47.32;101477.88;5055882;28;45579;-52
2021/08/18 09:30:27;;;;;;;;;7.00;5.00;;;;;23.55;47.28;101475.22;5055880;28;45714;-54
2021/08/18 09:32:55;;;;;;;;;7.00;5.50;;;;;23.52;47.16;101475.41;5056140;28;45998;-48
2021/08/18 09:35:23;;;;;;;;;5.50;5.50;;;;;23.50;47.32;101474.66;5056087;28;45490;-52
2021/08/18 09:37:57;;;;;;;;;7.25;6.00;;;;;23.49;47.53;101481.72;5055828;28;46668;-48
2021/08/18 09:40:38;;;;;;;;;7.75;4.25;;;;;23.46;47.44;101481.91;5056222;28;45395;-54
2021/08/18 09:43:07;;;;;;;;;11.50;5.75;;;;;23.43;47.52;101477.63;5059324;28;45398;-56
2021/08/18 09:45:33;;;;;;;;;5.75;5.75;;;;;23.42;47.73;101475.09;5059428;28;45320;-55
2021/08/18 09:47:59;;;;;;;;;5.25;5.25;;;;;23.40;47.72;101474.31;5059000;28;46549;-51
2021/08/18 09:50:28;;;;;;;;;7.25;7.00;;;;;23.40;47.57;101471.66;5059026;28;45197;-52
2021/08/18 09:53:04;;;;;;;;;5.00;5.00;;;;;23.37;47.82;101474.50;5059281;28;45205;-55
2021/08/18 09:55:30;;;;;;;;;6.50;5.75;;;;;23.34;47.79;101462.28;5059230;28;45439;-50
2021/08/18 09:57:56;;;;;;;;;5.75;5.75;;;;;23.34;47.57;101466.75;5058920;28;46478;-54
2021/08/18 10:00:21;;;;;;;;;6.75;4.50;;;;;23.31;47.95;101465.97;5040539;28;45731;-51
2021/08/18 10:02:48;;;;;;;;;7.00;4.75;;;;;23.35;48.14;101474.59;5059287;28;45438;-50
2021/08/18 10:05:13;;;;;;;;;4.00;4.00;;;;;23.37;48.23;101474.50;5059221;28;45513;-47
2021/08/18 10:07:39;;;;;;;;;5.00;4.00;;;;;23.39;48.36;101476.13;5058623;28;46356;-49
2021/08/18 10:10:04;;;;;;;;;4.75;4.00;;;;;23.39;48.27;101476.13;5058670;28;45463;-51
2021/08/18 10:12:31;;;;;;;;;4.00;4.00;;;;;23.41;48.68;101471.59;5058682;28;45257;-51
2021/08/18 10:15:00;;;;;;;;;4.00;4.00;;;;;23.44;48.57;101471.41;5040700;28;45292;-52
2021/08/18 10:17:27;;;;;;;;;6.25;5.75;;;;;23.45;48.51;101464.34;5058396;28;46602;-53
2021/08/18 10:19:53;;;;;;;;;10.25;10.00;;;;;23.48;48.32;101469.47;5058605;28;45829;-56
2021/08/18 10:22:27;;;;;;;;;8.00;6.25;;;;;23.49;48.28;101470.28;5058887;28;45262;-55
2021/08/18 10:24:53;;;;;;;;;8.25;6.75;;;;;23.47;47.92;101463.28;5058803;28;45297;-54
2021/08/18 10:27:47;;;;;;;;;6.00;5.00;;;;;23.49;48.00;101465.00;5058555;28;46157;-50
2021/08/18 10:30:25;;;;;;;;;4.50;4.50;;;;;23.50;47.87;101462.25;5058419;28;45390;-54
2021/08/18 10:32:51;;;;;;;;;3.75;3.50;;;;;23.52;47.71;101459.53;5058829;28;45364;-47
2021/08/18 10:35:35;;;;;;;;;10.00;5.75;;;;;23.54;48.18;101462.94;5058608;28;45217;-47
2021/08/18 10:38:28;;;;;;;;;5.00;5.00;;;;;23.58;48.18;101456.53;5058289;28;46746;-52
2021/08/18 10:40:54;;;;;;;;;5.00;4.00;;;;;23.60;47.65;101452.84;5058364;28;45499;-45
2021/08/18 10:43:50;;;;;;;;;5.75;4.75;;;;;23.62;47.62;101450.13;5058814;28;45435;-45
2021/08/18 10:46:16;;;;;;;;;6.00;4.50;;;;;23.64;47.55;101442.94;5058400;28;45562;-53
2021/08/18 10:48:53;;;;;;;;;5.75;3.25;;;;;23.69;48.05;101445.31;5058121;28;45264;-52
2021/08/18 10:51:39;;;;;;;;;7.75;5.25;;;;;23.72;47.85;101448.63;5058264;28;45327;-51
2021/08/18 10:54:29;;;;;;;;;3.50;3.50;;;;;23.75;47.68;101448.47;5046739;28;45511;-49
2021/08/18 10:56:59;;;;;;;;;4.00;2.00;;;;;23.76;47.71;101447.47;5058334;28;45369;-52
2021/08/18 10:59:49;;;;;;;;;7.00;3.50;;;;;23.81;47.46;101447.25;5057924;28;46521;-54
2021/08/18 11:02:50;;;;;;;;;3.75;3.75;;;;;23.84;47.56;101448.84;5050532;28;45358;-55
2021/08/18 11:05:18;;;;;;;;;2.75;2.75;;;;;23.86;47.02;101444.31;5058160;28;45383;-53
2021/08/18 11:08:02;;;;;;;;;3.75;3.75;;;;;23.88;47.16;101440.63;5058029;28;45413;-54
2021/08/18 11:10:28;;;;;;;;;4.00;4.00;;;;;23.89;47.47;101436.16;5057710;28;46071;-52
2021/08/18 11:12:55;;;;;;;;;4.00;4.00;;;;;23.90;46.90;101440.53;5057730;28;45844;-50
2021/08/18 11:15:20;;;;;;;;;7.25;4.50;;;;;23.93;47.53;101432.41;5058361;28;45336;-51
2021/08/18 11:17:50;;;;;;;;;7.00;2.33;;;;;23.93;47.07;101429.75;5057953;28;45237;-53
2021/08/18 11:20:22;;;;;;;;;4.25;3.50;;;;;23.94;47.05;101426.16;5057584;28;45450;-48
2021/08/18 11:22:54;;;;;;;;;3.25;3.25;;;;;23.95;47.26;101425.25;5058092;28;45209;-48